createdAt,value
2017-07-12T00:01:43.238Z,18.27
2017-07-12T00:04:11.557Z,17.97
2017-07-12T00:06:40.296Z,17.97
2017-07-12T00:09:08.626Z,18.14
2017-07-12T00:11:36.938Z,18.27
2017-07-12T00:14:06.222Z,18.44
2017-07-12T00:16:34.533Z,18.30
2017-07-12T00:19:02.857Z,18.21
2017-07-12T00:21:31.723Z,18.09
2017-07-12T00:24:00.045Z,18.14
2017-07-12T00:26:28.380Z,18.27
2017-07-12T00:28:57.010Z,18.35
2017-07-12T00:31:25.333Z,18.44
2017-07-12T00:33:53.666Z,18.45
2017-07-12T00:36:22.282Z,18.36
2017-07-12T00:38:50.621Z,18.29
2017-07-12T00:41:19.001Z,18.21
2017-07-12T00:43:48.012Z,18.19
2017-07-12T00:46:16.335Z,18.36
2017-07-12T00:48:44.661Z,18.38
2017-07-12T00:51:13.335Z,18.45
2017-07-12T00:53:41.664Z,18.55
2017-07-12T00:56:09.988Z,18.70
2017-07-12T01:01:18.532Z,18.57
2017-07-12T01:03:46.858Z,18.45
2017-07-12T01:06:15.221Z,18.17
2017-07-12T01:08:43.859Z,18.18
2017-07-12T01:11:12.193Z,18.28
2017-07-12T01:13:40.525Z,18.26
2017-07-12T01:16:09.734Z,18.35
2017-07-12T01:18:38.034Z,18.42
2017-07-12T01:21:06.359Z,18.62
2017-07-12T01:23:35.111Z,18.43
2017-07-12T01:26:03.480Z,18.53
2017-07-12T01:28:31.844Z,18.54
2017-07-12T01:31:00.686Z,18.75
2017-07-12T01:33:29.047Z,18.77
2017-07-12T01:35:57.411Z,18.62
2017-07-12T01:38:26.341Z,18.55
2017-07-12T01:40:54.695Z,18.39
2017-07-12T01:43:23.041Z,18.45
2017-07-12T01:45:51.799Z,18.49
2017-07-12T01:48:20.137Z,18.41
2017-07-12T01:50:49.238Z,18.18
2017-07-12T01:53:18.023Z,18.46
2017-07-12T01:55:46.369Z,18.64
2017-07-12T01:58:14.714Z,18.68
2017-07-12T02:00:43.374Z,18.65
2017-07-12T02:03:11.708Z,18.71
2017-07-12T02:05:40.081Z,18.43
2017-07-12T02:08:09.269Z,18.36
2017-07-12T02:10:37.600Z,18.27
2017-07-12T02:13:05.925Z,18.41
2017-07-12T02:15:34.777Z,18.51
2017-07-12T02:18:03.975Z,18.58
2017-07-12T02:20:32.341Z,18.72
2017-07-12T02:23:01.110Z,18.69
2017-07-12T02:25:29.465Z,18.67
2017-07-12T02:27:57.806Z,18.73
2017-07-12T02:30:26.606Z,18.70
2017-07-12T02:32:54.966Z,18.54
2017-07-12T02:35:23.320Z,18.27
2017-07-12T02:37:52.865Z,18.23
2017-07-12T02:40:21.200Z,18.34
2017-07-12T02:45:21.810Z,18.69
2017-07-12T02:47:50.179Z,18.55
2017-07-12T02:50:18.565Z,18.50
2017-07-12T02:52:47.667Z,18.48
2017-07-12T02:55:16.023Z,18.40
2017-07-12T02:57:44.378Z,18.51
2017-07-12T03:00:13.986Z,18.56
2017-07-12T03:02:42.359Z,18.56
2017-07-12T03:05:11.513Z,18.57
2017-07-12T03:07:40.283Z,18.44
2017-07-12T03:10:08.629Z,18.62
2017-07-12T03:12:37.769Z,18.56
2017-07-12T03:15:06.918Z,18.54
2017-07-12T03:17:35.270Z,18.48
2017-07-12T03:20:03.625Z,18.48
2017-07-12T03:22:32.259Z,18.73
2017-07-12T03:25:01.398Z,18.92
2017-07-12T03:27:29.762Z,18.85
2017-07-12T03:29:58.668Z,18.88
2017-07-12T03:32:27.004Z,18.83
2017-07-12T03:34:55.351Z,18.78
2017-07-12T03:37:24.136Z,18.98
2017-07-12T03:39:55.213Z,18.76
2017-07-12T03:42:23.546Z,18.77
2017-07-12T03:44:52.228Z,18.37
2017-07-12T03:47:20.574Z,18.60
2017-07-12T03:49:49.681Z,18.65
2017-07-12T03:52:18.319Z,18.73
2017-07-12T03:54:46.665Z,18.72
2017-07-12T03:57:15.003Z,18.66
2017-07-12T03:59:44.313Z,18.38
2017-07-12T04:02:12.648Z,18.43
2017-07-12T04:04:40.991Z,18.54
2017-07-12T04:07:09.631Z,18.53
2017-07-12T04:09:37.975Z,18.51
2017-07-12T04:12:06.311Z,18.62
2017-07-12T04:14:34.974Z,18.45
2017-07-12T04:17:03.370Z,18.50
2017-07-12T04:19:31.743Z,18.85
2017-07-12T04:22:00.882Z,19.00
2017-07-12T04:24:29.218Z,18.93
2017-07-12T04:26:58.338Z,18.77
2017-07-12T04:29:27.122Z,18.76
2017-07-12T04:31:55.466Z,18.92
2017-07-12T04:34:23.819Z,18.87
2017-07-12T04:36:52.546Z,18.89
2017-07-12T04:39:20.927Z,19.12
2017-07-12T04:41:50.080Z,19.10
2017-07-12T04:44:19.049Z,18.90
2017-07-12T04:46:47.398Z,18.68
2017-07-12T04:49:16.504Z,18.79
2017-07-12T04:51:46.124Z,18.75
2017-07-12T04:54:14.470Z,18.72
2017-07-12T04:56:42.810Z,18.84
2017-07-12T04:59:11.563Z,18.83
2017-07-12T05:01:39.892Z,19.07
2017-07-12T05:04:08.248Z,19.20
2017-07-12T05:06:37.214Z,19.23
2017-07-12T05:09:05.562Z,19.20
2017-07-12T05:11:33.941Z,19.13
2017-07-12T05:14:02.596Z,19.10
2017-07-12T05:16:30.974Z,19.00
2017-07-12T05:18:59.323Z,19.08
2017-07-12T05:21:28.106Z,19.12
2017-07-12T05:23:56.432Z,19.28
2017-07-12T05:26:24.792Z,19.13
2017-07-12T05:28:53.968Z,19.20
2017-07-12T05:31:22.320Z,19.20
2017-07-12T05:33:50.665Z,19.25
2017-07-12T05:36:19.620Z,19.01
2017-07-12T05:38:47.967Z,18.99
2017-07-12T05:41:16.339Z,19.25
2017-07-12T05:43:44.986Z,19.40
2017-07-12T05:46:13.396Z,19.57
2017-07-12T05:48:41.763Z,19.46
2017-07-12T05:51:10.970Z,19.66
2017-07-12T05:53:39.318Z,19.80
2017-07-12T05:56:07.680Z,19.69
2017-07-12T05:58:36.562Z,19.77
2017-07-12T06:01:04.907Z,19.74
2017-07-12T06:03:33.262Z,19.77
2017-07-12T06:06:02.003Z,19.74
2017-07-12T06:08:30.344Z,19.78
2017-07-12T06:10:58.691Z,19.96
2017-07-12T06:13:28.012Z,20.02
2017-07-12T06:15:56.345Z,19.96
2017-07-12T06:18:24.679Z,20.09
2017-07-12T06:20:53.317Z,19.86
2017-07-12T06:23:21.677Z,19.94
2017-07-12T06:25:50.775Z,20.17
2017-07-12T06:28:20.391Z,20.32
2017-07-12T06:30:48.737Z,20.51
2017-07-12T06:33:17.100Z,20.56
2017-07-12T06:35:45.922Z,20.46
2017-07-12T06:38:15.064Z,20.27
2017-07-12T06:40:43.442Z,20.42
2017-07-12T06:43:12.312Z,20.51
2017-07-12T06:45:40.665Z,20.48
2017-07-12T06:48:09.781Z,20.30
2017-07-12T06:50:38.584Z,20.02
2017-07-12T06:53:06.919Z,20.05
2017-07-12T06:55:35.247Z,20.11
2017-07-12T06:58:04.229Z,20.04
2017-07-12T07:00:32.576Z,20.15
2017-07-12T07:03:00.919Z,20.47
2017-07-12T07:05:29.561Z,20.64
2017-07-12T07:07:58.688Z,20.65
2017-07-12T07:10:27.044Z,20.85
2017-07-12T07:12:55.669Z,20.90
2017-07-12T07:15:24.015Z,20.75
2017-07-12T07:17:52.364Z,20.70
2017-07-12T07:20:22.062Z,20.61
2017-07-12T07:22:50.443Z,20.57
2017-07-12T07:25:18.785Z,20.45
2017-07-12T07:27:47.659Z,20.37
2017-07-12T07:30:16.000Z,20.47
2017-07-12T07:32:45.124Z,20.20
2017-07-12T07:35:13.814Z,20.15
2017-07-12T07:37:42.200Z,20.13
2017-07-12T07:40:10.533Z,19.97
2017-07-12T07:42:39.559Z,19.92
2017-07-12T07:45:07.907Z,19.86
2017-07-12T07:47:36.256Z,19.84
2017-07-12T07:50:05.033Z,19.85
2017-07-12T07:52:33.408Z,19.69
2017-07-12T07:55:01.761Z,19.93
2017-07-12T07:57:30.524Z,19.86
2017-07-12T07:59:58.888Z,19.96
2017-07-12T08:02:27.283Z,20.14
2017-07-12T08:04:56.825Z,20.26
2017-07-12T08:07:25.180Z,20.61
2017-07-12T08:09:53.533Z,20.77
2017-07-12T08:12:22.401Z,21.09
2017-07-12T08:14:50.744Z,20.98
2017-07-12T08:17:19.112Z,20.92
2017-07-12T08:19:48.421Z,21.13
2017-07-12T08:22:16.764Z,20.53
2017-07-12T08:24:45.118Z,20.35
2017-07-12T08:27:14.413Z,20.27
2017-07-12T08:29:42.763Z,20.42
2017-07-12T08:32:11.114Z,20.57
2017-07-12T08:34:40.573Z,20.60
2017-07-12T08:37:08.906Z,20.39
2017-07-12T08:39:37.267Z,20.59
2017-07-12T08:42:06.201Z,20.51
2017-07-12T08:44:34.536Z,20.25
2017-07-12T08:47:02.923Z,20.13
2017-07-12T08:49:31.662Z,19.81
2017-07-12T08:52:00.001Z,20.39
2017-07-12T08:54:29.113Z,20.74
2017-07-12T08:56:58.723Z,21.17
2017-07-12T08:59:27.057Z,21.15
2017-07-12T09:01:55.398Z,21.30
2017-07-12T09:04:24.214Z,21.43
2017-07-12T09:06:52.557Z,21.55
2017-07-12T09:09:20.922Z,21.51
2017-07-12T09:11:49.845Z,21.31
2017-07-12T09:14:18.196Z,20.95
2017-07-12T09:16:46.551Z,20.91
2017-07-12T09:19:15.275Z,20.72
2017-07-12T09:21:43.747Z,20.94
2017-07-12T09:24:12.153Z,20.79
2017-07-12T09:34:07.037Z,21.65
2017-07-12T09:36:35.383Z,21.60
2017-07-12T09:39:03.866Z,21.76
2017-07-12T09:41:32.754Z,22.24
2017-07-12T09:44:01.088Z,22.28
2017-07-12T09:46:29.444Z,21.87
2017-07-12T09:48:58.082Z,21.99
2017-07-12T09:51:26.417Z,22.04
2017-07-12T09:53:54.758Z,22.28
2017-07-12T09:56:23.722Z,22.30
2017-07-12T09:58:52.052Z,22.39
2017-07-12T10:01:20.403Z,22.12
2017-07-12T10:03:49.375Z,22.10
2017-07-12T10:06:17.701Z,22.01
2017-07-12T10:08:46.040Z,22.02
2017-07-12T10:11:14.730Z,21.99
2017-07-12T10:13:43.105Z,22.02
2017-07-12T10:16:11.461Z,21.69
2017-07-12T10:18:40.454Z,21.65
2017-07-12T10:21:08.801Z,21.84
2017-07-12T10:23:37.271Z,21.79
2017-07-12T10:26:05.945Z,21.88
2017-07-12T10:28:34.446Z,22.02
2017-07-12T10:31:02.821Z,21.95
2017-07-12T10:33:31.773Z,22.03
2017-07-12T10:36:00.152Z,21.85
2017-07-12T10:38:28.529Z,21.91
2017-07-12T10:40:57.402Z,21.97
2017-07-12T10:43:25.803Z,21.91
2017-07-12T10:45:54.139Z,21.89
2017-07-12T10:48:23.101Z,22.02
2017-07-12T10:50:51.450Z,21.91
2017-07-12T10:53:19.791Z,22.02
2017-07-12T10:55:48.442Z,22.08
2017-07-12T10:58:16.850Z,22.15
2017-07-12T11:00:45.232Z,22.22
2017-07-12T11:03:14.104Z,22.11
2017-07-12T11:05:42.466Z,22.12
2017-07-12T11:08:10.804Z,22.21
2017-07-12T11:10:40.278Z,22.48
2017-07-12T11:13:08.647Z,22.58
2017-07-12T11:15:37.026Z,22.36
2017-07-12T11:18:05.690Z,22.52
2017-07-12T11:20:34.021Z,22.51
2017-07-12T11:23:03.200Z,22.60
2017-07-12T11:25:32.070Z,22.40
2017-07-12T11:28:00.422Z,22.46
2017-07-12T11:30:28.768Z,22.69
2017-07-12T11:32:57.574Z,22.42
2017-07-12T11:35:25.978Z,22.50
2017-07-12T11:37:54.319Z,22.83
2017-07-12T11:40:22.934Z,23.06
2017-07-12T11:42:51.321Z,23.00
2017-07-12T11:45:19.680Z,23.15
2017-07-12T11:47:48.414Z,23.51
2017-07-12T11:50:16.777Z,23.54
2017-07-12T11:52:45.154Z,23.57
2017-07-12T11:55:13.817Z,23.90
2017-07-12T11:57:42.158Z,24.07
2017-07-12T12:00:10.510Z,23.89
2017-07-12T12:02:39.407Z,23.61
2017-07-12T12:05:07.740Z,23.65
2017-07-12T12:07:36.100Z,23.76
2017-07-12T12:10:05.094Z,23.70
2017-07-12T12:12:34.201Z,23.59
2017-07-12T12:15:03.307Z,23.33
2017-07-12T12:17:32.091Z,23.43
2017-07-12T12:20:00.430Z,23.38
2017-07-12T12:22:28.769Z,23.30
2017-07-12T12:24:57.736Z,23.19
2017-07-12T12:27:26.089Z,23.19
2017-07-12T12:29:54.447Z,23.16
2017-07-12T12:32:23.390Z,23.16
2017-07-12T12:34:51.757Z,23.33
2017-07-12T12:37:20.893Z,23.27
2017-07-12T12:39:49.517Z,23.39
2017-07-12T12:42:17.874Z,23.59
2017-07-12T12:44:46.205Z,23.62
2017-07-12T12:47:14.893Z,23.86
2017-07-12T12:49:43.218Z,23.79
2017-07-12T12:52:11.588Z,23.74
2017-07-12T12:54:40.654Z,23.58
2017-07-12T12:57:08.999Z,23.69
2017-07-12T12:59:37.350Z,23.49
2017-07-12T13:02:06.216Z,23.31
2017-07-12T13:04:40.147Z,23.31
2017-07-12T13:07:09.111Z,23.16
2017-07-12T13:09:37.435Z,23.26
2017-07-12T13:12:05.800Z,23.18
2017-07-12T13:14:34.643Z,23.38
2017-07-12T13:17:03.819Z,23.44
2017-07-12T13:19:32.076Z,23.41
2017-07-12T13:22:00.703Z,23.67
2017-07-12T13:24:29.079Z,23.62
2017-07-12T13:26:57.543Z,23.43
2017-07-12T13:29:26.479Z,23.49
2017-07-12T13:31:54.826Z,23.32
2017-07-12T13:34:23.943Z,23.46
2017-07-12T13:36:52.817Z,23.47
2017-07-12T13:39:21.935Z,23.47
2017-07-12T13:41:50.268Z,23.42
2017-07-12T13:44:18.998Z,23.45
2017-07-12T13:46:47.327Z,23.30
2017-07-12T13:49:15.662Z,23.21
2017-07-12T13:51:44.444Z,23.17
2017-07-12T13:54:12.795Z,23.35
2017-07-12T13:56:41.918Z,23.34
2017-07-12T13:59:11.110Z,23.56
2017-07-12T14:01:39.439Z,23.59
2017-07-12T14:04:07.800Z,23.40
2017-07-12T14:06:36.559Z,23.34
2017-07-12T14:09:04.912Z,23.39
2017-07-12T14:11:34.011Z,23.44
2017-07-12T14:14:03.442Z,23.39
2017-07-12T14:16:31.800Z,23.54
2017-07-12T14:19:00.956Z,23.73
2017-07-12T14:21:29.678Z,23.83
2017-07-12T14:23:58.035Z,23.78
2017-07-12T14:26:26.351Z,23.42
2017-07-12T14:28:55.567Z,23.59
2017-07-12T14:31:23.908Z,23.48
2017-07-12T14:33:52.336Z,23.28
2017-07-12T14:36:20.927Z,23.28
2017-07-12T14:38:49.257Z,23.00
2017-07-12T14:41:17.585Z,22.70
2017-07-12T14:43:46.632Z,22.53
2017-07-12T14:46:14.963Z,22.53
2017-07-12T14:48:43.298Z,22.47
2017-07-12T14:51:12.677Z,22.50
2017-07-12T14:53:41.048Z,22.53
2017-07-12T14:56:09.412Z,22.59
2017-07-12T14:58:38.349Z,22.58
2017-07-12T15:01:06.706Z,22.60
2017-07-12T15:03:35.045Z,22.70
2017-07-12T15:06:03.770Z,22.60
2017-07-12T15:08:32.097Z,22.33
2017-07-12T15:11:00.442Z,21.90
2017-07-12T15:13:29.859Z,21.55
2017-07-12T15:15:58.203Z,21.27
2017-07-12T15:18:26.546Z,21.25
2017-07-12T15:20:55.177Z,21.30
2017-07-12T15:23:23.520Z,21.20
2017-07-12T15:25:51.860Z,21.42
2017-07-12T15:28:20.638Z,21.52
2017-07-12T15:30:49.748Z,21.65
2017-07-12T15:33:18.097Z,21.57
2017-07-12T15:35:46.812Z,21.10
2017-07-12T15:38:15.129Z,20.90
2017-07-12T15:40:43.481Z,20.80
2017-07-12T15:43:12.201Z,20.89
2017-07-12T15:45:40.533Z,20.69
2017-07-12T15:48:08.878Z,20.59
2017-07-12T15:50:38.127Z,20.59
2017-07-12T15:53:06.455Z,20.20
2017-07-12T15:55:34.799Z,20.37
2017-07-12T15:58:03.559Z,20.67
2017-07-12T16:00:31.902Z,20.56
2017-07-12T16:03:00.256Z,20.61
2017-07-12T16:05:29.170Z,20.79
2017-07-12T16:07:57.506Z,20.34
2017-07-12T16:10:25.844Z,20.61
2017-07-12T16:12:55.591Z,20.78
2017-07-12T16:15:23.933Z,20.93
2017-07-12T16:17:52.274Z,21.02
2017-07-12T16:20:21.096Z,20.91
2017-07-12T16:22:49.441Z,20.80
2017-07-12T16:25:17.789Z,20.90
2017-07-12T16:27:46.555Z,20.92
2017-07-12T16:30:14.890Z,20.72
2017-07-12T16:32:43.216Z,20.53
2017-07-12T16:35:12.849Z,20.39
2017-07-12T16:37:41.259Z,20.38
2017-07-12T16:40:09.542Z,20.40
2017-07-12T16:42:38.218Z,20.46
2017-07-12T16:45:06.567Z,20.63
2017-07-12T16:47:34.922Z,20.66
2017-07-12T16:50:03.561Z,20.69
2017-07-12T16:52:32.006Z,19.95
2017-07-12T16:55:00.346Z,19.79
2017-07-12T16:57:29.401Z,19.62
2017-07-12T16:59:57.749Z,19.76
2017-07-12T17:02:26.080Z,19.66
2017-07-12T17:04:54.813Z,19.44
2017-07-12T17:07:23.153Z,19.54
2017-07-12T17:09:51.579Z,19.60
2017-07-12T17:12:20.150Z,19.63
2017-07-12T17:14:49.245Z,19.58
2017-07-12T17:17:18.342Z,19.37
2017-07-12T17:19:47.965Z,19.43
2017-07-12T17:22:16.292Z,19.30
2017-07-12T17:24:44.663Z,19.51
2017-07-12T17:27:13.410Z,19.52
2017-07-12T17:29:41.740Z,19.58
2017-07-12T17:32:10.078Z,19.72
2017-07-12T17:34:38.793Z,19.72
2017-07-12T17:37:07.130Z,19.64
2017-07-12T17:39:35.514Z,19.46
2017-07-12T17:42:04.293Z,19.29
2017-07-12T17:44:32.624Z,19.04
2017-07-12T17:47:00.963Z,19.12
2017-07-12T17:49:29.636Z,18.93
2017-07-12T17:51:58.012Z,19.18
2017-07-12T17:54:26.354Z,19.44
2017-07-12T17:56:55.187Z,19.56
2017-07-12T17:59:23.538Z,19.56
2017-07-12T18:01:51.878Z,19.65
2017-07-12T18:04:20.623Z,19.96
2017-07-12T18:06:48.991Z,19.94
2017-07-12T18:09:18.128Z,19.89
2017-07-12T18:11:46.910Z,19.78
2017-07-12T18:14:15.256Z,19.63
2017-07-12T18:16:44.379Z,19.52
2017-07-12T18:19:13.161Z,19.68
2017-07-12T18:21:41.499Z,19.45
2017-07-12T18:24:09.840Z,19.57
2017-07-12T18:26:38.819Z,19.70
2017-07-12T18:29:07.170Z,19.80
2017-07-12T18:31:36.659Z,19.81
2017-07-12T18:34:05.496Z,19.82
2017-07-12T18:36:33.833Z,19.75
2017-07-12T18:39:02.163Z,19.84
2017-07-12T18:41:30.933Z,19.91
2017-07-12T18:43:59.277Z,19.80
2017-07-12T18:46:27.642Z,19.81
2017-07-12T18:48:56.886Z,19.61
2017-07-12T18:51:26.013Z,19.55
2017-07-12T18:53:54.353Z,19.61
2017-07-12T18:56:23.254Z,19.62
2017-07-12T18:58:51.591Z,19.60
2017-07-12T19:01:19.934Z,19.51
2017-07-12T19:03:48.538Z,19.36
2017-07-12T19:06:17.624Z,19.66
2017-07-12T19:08:46.012Z,19.59
2017-07-12T19:11:14.971Z,19.56
2017-07-12T19:13:43.319Z,19.14
2017-07-12T19:16:11.655Z,18.96
2017-07-12T19:18:40.406Z,18.75
2017-07-12T19:21:08.759Z,18.62
2017-07-12T19:23:37.102Z,18.42
2017-07-12T19:26:05.761Z,18.51
2017-07-12T19:28:34.097Z,18.50
2017-07-12T19:31:02.447Z,18.27
2017-07-12T19:33:31.768Z,18.43
2017-07-12T19:36:00.116Z,18.40
2017-07-12T19:38:28.471Z,18.16
2017-07-12T19:40:57.137Z,18.20
2017-07-12T19:43:25.485Z,18.19
2017-07-12T19:45:53.820Z,18.26
2017-07-12T19:48:22.481Z,18.32
2017-07-12T19:50:51.578Z,18.11
2017-07-12T19:53:20.699Z,17.96
2017-07-12T19:55:49.683Z,17.93
2017-07-12T19:58:18.032Z,17.88
2017-07-12T20:00:46.358Z,17.43
2017-07-12T20:03:15.168Z,17.40
2017-07-12T20:05:43.513Z,17.24
2017-07-12T20:08:11.873Z,17.34
2017-07-12T20:10:40.793Z,17.24
2017-07-12T20:13:09.191Z,17.23
2017-07-12T20:15:37.523Z,17.20
2017-07-12T20:18:06.777Z,17.25
2017-07-12T20:20:35.098Z,17.16
2017-07-12T20:23:03.454Z,17.03
2017-07-12T20:25:32.061Z,17.12
2017-07-12T20:28:00.412Z,17.03
2017-07-12T20:30:28.749Z,17.13
2017-07-12T20:32:57.542Z,16.94
2017-07-12T20:35:25.892Z,16.88
2017-07-12T20:37:54.240Z,16.98
2017-07-12T20:40:22.934Z,16.75
2017-07-12T20:42:51.287Z,16.86
2017-07-12T20:45:19.678Z,16.70
2017-07-12T20:47:48.406Z,16.84
2017-07-12T20:50:17.546Z,16.77
2017-07-12T20:52:45.897Z,16.84
2017-07-12T20:55:14.540Z,16.70
2017-07-12T20:57:42.894Z,16.75
2017-07-12T21:00:11.251Z,16.68
2017-07-12T21:02:40.064Z,16.70
2017-07-12T21:05:08.406Z,16.67
2017-07-12T21:07:36.746Z,16.75
2017-07-12T21:10:05.604Z,16.84
2017-07-12T21:12:33.957Z,16.84
2017-07-12T21:15:02.306Z,16.87
2017-07-12T21:17:30.969Z,16.86
2017-07-12T21:19:59.419Z,16.87
2017-07-12T21:22:27.864Z,16.85
2017-07-12T21:24:57.674Z,16.69
2017-07-12T21:27:26.046Z,16.70
2017-07-12T21:29:54.398Z,16.88
2017-07-12T21:32:23.026Z,16.94
2017-07-12T21:34:51.367Z,17.03
2017-07-12T21:37:19.698Z,17.04
2017-07-12T21:39:48.582Z,17.02
2017-07-12T21:42:16.922Z,16.94
2017-07-12T21:44:45.276Z,17.08
2017-07-12T21:47:14.049Z,17.05
2017-07-12T21:49:42.374Z,17.18
2017-07-12T21:52:10.714Z,17.29
2017-07-12T21:55:02.602Z,17.33
2017-07-12T21:57:54.130Z,17.39
2017-07-12T22:00:46.268Z,17.19
2017-07-12T22:03:37.648Z,17.11
2017-07-12T22:06:30.126Z,17.04
2017-07-12T22:09:21.882Z,17.14
2017-07-12T22:12:13.589Z,16.85
2017-07-12T22:15:05.217Z,17.16
2017-07-12T22:17:57.078Z,17.19
2017-07-12T22:20:48.531Z,17.01
2017-07-12T22:23:40.740Z,16.92
2017-07-12T22:26:32.404Z,16.84
2017-07-12T22:29:24.372Z,16.85
2017-07-12T22:32:15.917Z,16.78
2017-07-12T22:35:07.776Z,16.84
2017-07-12T22:37:41.574Z,16.71
2017-07-12T22:40:15.675Z,16.66
2017-07-12T22:42:49.589Z,16.50
2017-07-12T22:45:18.256Z,16.58
2017-07-12T22:47:46.603Z,16.35
2017-07-12T22:50:14.946Z,16.43
2017-07-12T22:52:43.765Z,16.43
2017-07-12T22:55:12.110Z,16.34
2017-07-12T22:57:40.463Z,16.31
2017-07-12T23:00:09.298Z,15.93
2017-07-12T23:02:37.637Z,15.93
2017-07-12T23:05:05.970Z,16.01
2017-07-12T23:07:34.857Z,16.17
2017-07-12T23:10:03.179Z,16.17
2017-07-12T23:12:31.515Z,15.94
2017-07-12T23:15:00.158Z,16.13
2017-07-12T23:17:28.499Z,16.06
2017-07-12T23:19:56.826Z,15.93
2017-07-12T23:22:25.761Z,16.00
2017-07-12T23:24:54.119Z,16.08
2017-07-12T23:27:23.210Z,16.16
2017-07-12T23:29:52.015Z,16.23
2017-07-12T23:32:20.363Z,16.22
2017-07-12T23:34:48.714Z,16.20
2017-07-12T23:37:17.403Z,16.10
2017-07-12T23:39:45.725Z,15.75
2017-07-12T23:42:14.064Z,15.63
2017-07-12T23:44:42.930Z,15.64
2017-07-12T23:47:11.268Z,15.61
2017-07-12T23:49:39.609Z,15.70
2017-07-12T23:52:08.282Z,15.63
2017-07-12T23:54:36.643Z,15.64
2017-07-12T23:57:04.982Z,15.54
2017-07-12T23:59:33.607Z,15.49
